KJCT/JCT METAR and TAF weather

Enter ICAO airport designator
Station Type Date Time Source
KJCT METAR 2022/12/10 01:51 UTC NOAA

KJCT 100151Z AUTO 00000KT 7SM CLR 18/15 A3005 RMK AO2 SLP151 T01780150


Station Type Date Time Source
KJCT Decoded METAR 2022/12/10 01:51 UTC NOAA

KIMBLE COUNTY AIRPORT, TX, United States (KJCT) 30-31N 099-46W 523M
Dec 09, 2022 - 08:51 PM EST / 2022.12.10 0151 UTC
Wind: Calm:0
Visibility: 7 mile(s):0
Sky conditions: clear
Temperature: 64.0 F (17.8 C)
Dew Point: 59.0 F (15.0 C)
Relative Humidity: 83%
Pressure (altimeter): 30.05 in. Hg (1017 hPa)
ob: KJCT 100151Z AUTO 00000KT 7SM CLR 18/15 A3005 RMK AO2 SLP151 T01780150
cycle: 2

Station Type Date Time Source
KJCT TAF 2022/12/09 18:45 UTC NOAA

TAF KJCT 091742Z 0918/1018 16006KT P6SM BKN050
FM100600 14003KT P6SM OVC015
FM101300 15004KT 5SM BR OVC007

Example: see airport list